^^
Grace C. Lehan Memorial Weather Station Historical Data
Daily Summary for January 6, 2021 Units:  Both    English   Metric
Daily Weekly Monthly Yearly
  High: Low: Average:
Temperature: 95.2 °F /  35.1 °C 67.8 °F /  19.9 °C 83.6 °F /  28.7 °C
Dew Point: 69.4 °F /  20.8 °C 62.5 °F /  16.9 °C 66.1 °F /  18.9 °C
Humidity: 85% 37.1% 58%
Wind Speed: 5.5mph /  8.9km/h - 0.8mph /  1.3km/h
Wind Gust: 14mph /  22.5km/h - -
Wind- - WSW
Pressure: 30.01 in /  1016.1 hPa 29.89 in /  1012.1 hPa -
Precipitation: 0.00 in /  0 mm    
 
 
Tabular Data for January 6, 2021
Time Temperature Dew Point Pressure Wind Wind Speed Wind Gust Humidity Rainfall Rate (Hourly) solar
00:04 75.8 °F /  24.3 °C 64.4 °F /  18 °C 29.89in /  1012.1hPa Calm     67.6% 0.00in /  0mm 0 W/m2
00:09 75.7 °F /  24.3 °C 64.4 °F /  18 °C 29.89in /  1012.1hPa WNW 0.3mph /  0.5km/h 3mph /  4.8km/h 68% 0.00in /  0mm 0 W/m2
00:14 75.5 °F /  24.2 °C 64.2 °F /  17.9 °C 29.89in /  1012.1hPa Calm   3mph /  4.8km/h 68% 0.00in /  0mm 0 W/m2
00:19 75.4 °F /  24.1 °C 64.1 °F /  17.8 °C 29.89in /  1012.1hPa Calm   3mph /  4.8km/h 68% 0.00in /  0mm 0 W/m2
00:24 75.3 °F /  24.1 °C 64 °F /  17.8 °C 29.89in /  1012.1hPa Calm   3mph /  4.8km/h 68% 0.00in /  0mm 0 W/m2
00:29 75.1 °F /  23.9 °C 63.5 °F /  17.5 °C 29.89in /  1012.1hPa Calm   3mph /  4.8km/h 67.3% 0.00in /  0mm 0 W/m2
00:34 75 °F /  23.9 °C 63.8 °F /  17.7 °C 29.89in /  1012.1hPa Calm   3mph /  4.8km/h 68% 0.00in /  0mm 0 W/m2
00:39 75 °F /  23.9 °C 63.8 °F /  17.7 °C 29.89in /  1012.1hPa Calm     68.2% 0.00in /  0mm 0 W/m2
00:44 74.8 °F /  23.8 °C 64.1 °F /  17.8 °C 29.90in /  1012.4hPa Calm     69.2% 0.00in /  0mm 0 W/m2
00:49 74.7 °F /  23.7 °C 63.8 °F /  17.7 °C 29.89in /  1012.1hPa Calm     69% 0.00in /  0mm 0 W/m2
00:54 74.5 °F /  23.6 °C 63.8 °F /  17.7 °C 29.90in /  1012.4hPa Calm     69.3% 0.00in /  0mm 0 W/m2
00:59 74.3 °F /  23.5 °C 64.3 °F /  17.9 °C 29.90in /  1012.4hPa Calm   1mph /  1.6km/h 70.9% 0.00in /  0mm 0 W/m2
01:04 74 °F /  23.3 °C 64.4 °F /  18 °C 29.89in /  1012.1hPa Calm   1mph /  1.6km/h 72% 0.00in /  0mm 0 W/m2
01:09 73.7 °F /  23.2 °C 64.1 °F /  17.8 °C 29.90in /  1012.4hPa Calm     72% 0.00in /  0mm 0 W/m2
01:14 73.5 °F /  23.1 °C 63.9 °F /  17.7 °C 29.90in /  1012.4hPa Calm     72% 0.00in /  0mm 0 W/m2
01:19 73.3 °F /  22.9 °C 63.7 °F /  17.6 °C 29.90in /  1012.4hPa Calm     72% 0.00in /  0mm 0 W/m2
01:24 73.1 °F /  22.8 °C 63.6 °F /  17.6 °C 29.90in /  1012.4hPa Calm     72% 0.00in /  0mm 0 W/m2
01:29 73 °F /  22.8 °C 63.7 °F /  17.6 °C 29.90in /  1012.4hPa Calm     72.6% 0.00in /  0mm 0 W/m2
01:34 73 °F /  22.8 °C 63.8 °F /  17.7 °C 29.90in /  1012.4hPa Calm     73% 0.00in /  0mm 0 W/m2
01:39 72.8 °F /  22.7 °C 64 °F /  17.8 °C 29.90in /  1012.4hPa Calm     73.9% 0.00in /  0mm 0 W/m2
01:44 72.8 °F /  22.7 °C 64.2 °F /  17.9 °C 29.90in /  1012.4hPa Calm     74.5% 0.00in /  0mm 0 W/m2
01:49 72.8 °F /  22.7 °C 64 °F /  17.8 °C 29.90in /  1012.4hPa Calm     74% 0.00in /  0mm 0 W/m2
01:54 72.8 °F /  22.7 °C 64 °F /  17.8 °C 29.90in /  1012.4hPa Calm     73.9% 0.00in /  0mm 0 W/m2
01:59 72.8 °F /  22.7 °C 63.5 °F /  17.5 °C 29.90in /  1012.4hPa Calm     72.6% 0.00in /  0mm 0 W/m2
02:04 72.9 °F /  22.7 °C 63.4 °F /  17.4 °C 29.90in /  1012.4hPa Calm     72% 0.00in /  0mm 0 W/m2
02:09 73 °F /  22.8 °C 63.5 °F /  17.5 °C 29.90in /  1012.4hPa Calm     72% 0.00in /  0mm 0 W/m2
02:14 73.1 °F /  22.8 °C 63.5 °F /  17.5 °C 29.89in /  1012.1hPa Calm     72% 0.00in /  0mm 0 W/m2
02:19 73 °F /  22.8 °C 63.5 °F /  17.5 °C 29.89in /  1012.1hPa Calm     72% 0.00in /  0mm 0 W/m2
02:24 73 °F /  22.8 °C 63.4 °F /  17.4 °C 29.89in /  1012.1hPa Calm     72% 0.00in /  0mm 0 W/m2
02:29 72.9 °F /  22.7 °C 63.7 °F /  17.6 °C 29.89in /  1012.1hPa Calm     72.9% 0.00in /  0mm 0 W/m2
02:34 72.7 °F /  22.6 °C 64.1 °F /  17.8 °C 29.89in /  1012.1hPa Calm     74.4% 0.00in /  0mm 0 W/m2
02:39 72.3 °F /  22.4 °C 64 °F /  17.8 °C 29.89in /  1012.1hPa Calm     75% 0.00in /  0mm 0 W/m2
02:44 72.1 °F /  22.3 °C 63.7 °F /  17.6 °C 29.89in /  1012.1hPa Calm     75% 0.00in /  0mm 0 W/m2
02:49 71.9 °F /  22.2 °C 64 °F /  17.8 °C 29.89in /  1012.1hPa Calm     76% 0.00in /  0mm 0 W/m2
02:54 71.7 °F /  22.1 °C 63.7 °F /  17.6 °C 29.90in /  1012.4hPa Calm     76% 0.00in /  0mm 0 W/m2
02:59 71.4 °F /  21.9 °C 63.8 °F /  17.7 °C 29.90in /  1012.4hPa Calm     77% 0.00in /  0mm 0 W/m2
03:04 71.2 °F /  21.8 °C 63.6 °F /  17.6 °C 29.91in /  1012.8hPa Calm     77% 0.00in /  0mm 0 W/m2
03:09 71 °F /  21.7 °C 63.8 °F /  17.7 °C 29.91in /  1012.8hPa Calm     77.9% 0.00in /  0mm 0 W/m2
03:14 70.9 °F /  21.6 °C 63.7 °F /  17.6 °C 29.91in /  1012.8hPa NNE 1.2mph /  1.9km/h 6mph /  9.7km/h 77.8% 0.00in /  0mm 0 W/m2
03:19 71 °F /  21.7 °C 63.7 °F /  17.6 °C 29.91in /  1012.8hPa Calm   6mph /  9.7km/h 77.7% 0.00in /  0mm 0 W/m2
03:24 71 °F /  21.7 °C 63.7 °F /  17.6 °C 29.91in /  1012.8hPa Calm   6mph /  9.7km/h 77.7% 0.00in /  0mm 0 W/m2
03:29 71.1 °F /  21.7 °C 63.5 °F /  17.5 °C 29.91in /  1012.8hPa Calm   6mph /  9.7km/h 77% 0.00in /  0mm 0 W/m2
03:34 71.1 °F /  21.7 °C 63.5 °F /  17.5 °C 29.92in /  1013.1hPa Calm   6mph /  9.7km/h 77% 0.00in /  0mm 0 W/m2
03:39 71.1 °F /  21.7 °C 63.4 °F /  17.4 °C 29.92in /  1013.1hPa Calm     76.7% 0.00in /  0mm 0 W/m2
03:44 71.1 °F /  21.7 °C 63.2 °F /  17.3 °C 29.92in /  1013.1hPa Calm     76.1% 0.00in /  0mm 0 W/m2
03:49 71.2 °F /  21.8 °C 63.6 °F /  17.6 °C 29.92in /  1013.1hPa Calm     77% 0.00in /  0mm 0 W/m2
03:54 71.1 °F /  21.7 °C 63.5 °F /  17.5 °C 29.92in /  1013.1hPa Calm     77% 0.00in /  0mm 0 W/m2
03:59 71 °F /  21.7 °C 63.4 °F /  17.4 °C 29.92in /  1013.1hPa Calm     77% 0.00in /  0mm 0 W/m2
04:04 70.8 °F /  21.6 °C 63.2 °F /  17.3 °C 29.92in /  1013.1hPa Calm     77% 0.00in /  0mm 0 W/m2
04:09 70.7 °F /  21.5 °C 63.2 °F /  17.3 °C 29.92in /  1013.1hPa Calm     77.2% 0.00in /  0mm 0 W/m2
04:14 70.5 °F /  21.4 °C 63 °F /  17.2 °C 29.92in /  1013.1hPa Calm     77% 0.00in /  0mm 0 W/m2
04:19 70.4 °F /  21.3 °C 62.8 °F /  17.1 °C 29.92in /  1013.1hPa Calm     77% 0.00in /  0mm 0 W/m2
04:24 70.3 °F /  21.3 °C 63 °F /  17.2 °C 29.92in /  1013.1hPa Calm     77.7% 0.00in /  0mm 0 W/m2
04:29 70.2 °F /  21.2 °C 63 °F /  17.2 °C 29.92in /  1013.1hPa Calm     78% 0.00in /  0mm 0 W/m2
04:34 70.1 °F /  21.2 °C 62.9 °F /  17.2 °C 29.93in /  1013.4hPa Calm     78% 0.00in /  0mm 0 W/m2
04:39 69.9 °F /  21.1 °C 62.8 °F /  17.1 °C 29.93in /  1013.4hPa Calm     78% 0.00in /  0mm 0 W/m2
04:44 69.8 °F /  21 °C 62.9 °F /  17.2 °C 29.93in /  1013.4hPa Calm     78.6% 0.00in /  0mm 0 W/m2
04:49 69.6 °F /  20.9 °C 63.1 °F /  17.3 °C 29.94in /  1013.8hPa Calm     79.8% 0.00in /  0mm 0 W/m2
04:54 69.3 °F /  20.7 °C 62.9 °F /  17.2 °C 29.94in /  1013.8hPa Calm     80% 0.00in /  0mm 0 W/m2
04:59 69.1 °F /  20.6 °C 62.8 °F /  17.1 °C 29.94in /  1013.8hPa Calm     80.5% 0.00in /  0mm 0 W/m2
05:04 68.9 °F /  20.5 °C 62.8 °F /  17.1 °C 29.94in /  1013.8hPa Calm     81% 0.00in /  0mm 0 W/m2
05:09 68.7 °F /  20.4 °C 62.7 °F /  17.1 °C 29.94in /  1013.8hPa Calm     81% 0.00in /  0mm 0 W/m2
05:14 68.6 °F /  20.3 °C 62.5 °F /  16.9 °C 29.94in /  1013.8hPa Calm     81% 0.00in /  0mm 0 W/m2
05:19 68.5 °F /  20.3 °C 62.5 °F /  16.9 °C 29.94in /  1013.8hPa Calm     81% 0.00in /  0mm 0 W/m2
05:24 68.5 °F /  20.3 °C 62.7 °F /  17.1 °C 29.95in /  1014.1hPa Calm     81.9% 0.00in /  0mm 5 W/m2
05:29 68.3 °F /  20.2 °C 62.6 °F /  17 °C 29.95in /  1014.1hPa Calm     82% 0.00in /  0mm 7 W/m2
05:34 68.3 °F /  20.2 °C 62.8 °F /  17.1 °C 29.95in /  1014.1hPa Calm     82.6% 0.00in /  0mm 9 W/m2
05:39 68.2 °F /  20.1 °C 62.8 °F /  17.1 °C 29.95in /  1014.1hPa Calm     83% 0.00in /  0mm 12 W/m2
05:44 68.2 °F /  20.1 °C 62.8 °F /  17.1 °C 29.95in /  1014.1hPa Calm     83% 0.00in /  0mm 14 W/m2
05:49 68.1 °F /  20.1 °C 62.7 °F /  17.1 °C 29.95in /  1014.1hPa Calm     83% 0.00in /  0mm 18 W/m2
05:54 68 °F /  20 °C 62.9 °F /  17.2 °C 29.96in /  1014.4hPa Calm     84% 0.00in /  0mm 21 W/m2
05:59 67.8 °F /  19.9 °C 62.9 °F /  17.2 °C 29.96in /  1014.4hPa Calm     84.1% 0.00in /  0mm 23 W/m2
06:04 67.8 °F /  19.9 °C 63.1 °F /  17.3 °C 29.96in /  1014.4hPa Calm     85% 0.00in /  0mm 26 W/m2
06:09 67.8 °F /  19.9 °C 63.2 °F /  17.3 °C 29.96in /  1014.4hPa Calm   1mph /  1.6km/h 85% 0.00in /  0mm 28 W/m2
06:14 67.9 °F /  19.9 °C 63.1 °F /  17.3 °C 29.97in /  1014.8hPa Calm   1mph /  1.6km/h 84.6% 0.00in /  0mm 30 W/m2
06:19 68.2 °F /  20.1 °C 63.2 °F /  17.3 °C 29.97in /  1014.8hPa Calm   1mph /  1.6km/h 84% 0.00in /  0mm 33 W/m2
06:24 68.5 °F /  20.3 °C 63.2 °F /  17.3 °C 29.97in /  1014.8hPa Calm   1mph /  1.6km/h 83% 0.00in /  0mm 39 W/m2
06:29 69 °F /  20.6 °C 63.4 °F /  17.4 °C 29.97in /  1014.8hPa Calm   1mph /  1.6km/h 82.5% 0.00in /  0mm 46 W/m2
06:34 69.4 °F /  20.8 °C 63.6 °F /  17.6 °C 29.98in /  1015.1hPa Calm   1mph /  1.6km/h 82% 0.00in /  0mm 53 W/m2
06:39 69.9 °F /  21.1 °C 64.1 °F /  17.8 °C 29.98in /  1015.1hPa Calm     82% 0.00in /  0mm 54 W/m2
06:44 70.5 °F /  21.4 °C 64.5 °F /  18.1 °C 29.98in /  1015.1hPa Calm     81.3% 0.00in /  0mm 60 W/m2
06:49 71.3 °F /  21.8 °C 65.1 °F /  18.4 °C 29.98in /  1015.1hPa Calm     80.8% 0.00in /  0mm 63 W/m2
06:54 72.2 °F /  22.3 °C 65.3 °F /  18.5 °C 29.98in /  1015.1hPa Calm     79% 0.00in /  0mm 65 W/m2
06:59 73.1 °F /  22.8 °C 65.8 °F /  18.8 °C 29.98in /  1015.1hPa Calm     77.7% 0.00in /  0mm 69 W/m2
07:04 74.1 °F /  23.4 °C 66.3 °F /  19.1 °C 29.98in /  1015.1hPa Calm     76.6% 0.00in /  0mm 70 W/m2
07:09 75.1 °F /  23.9 °C 66.6 °F /  19.2 °C 29.98in /  1015.1hPa Calm     75% 0.00in /  0mm 72 W/m2
07:14 76.1 °F /  24.5 °C 66.8 °F /  19.3 °C 29.99in /  1015.5hPa Calm     72.8% 0.00in /  0mm 76 W/m2
07:19 77 °F /  25 °C 66.9 °F /  19.4 °C 29.99in /  1015.5hPa Calm     71.1% 0.00in /  0mm 104 W/m2
07:24 77.8 °F /  25.4 °C 67.1 °F /  19.5 °C 29.99in /  1015.5hPa Calm     69.8% 0.00in /  0mm 295 W/m2
07:29 78.3 °F /  25.7 °C 66.9 °F /  19.4 °C 29.99in /  1015.5hPa Calm     68% 0.00in /  0mm 315 W/m2
07:34 78.8 °F /  26 °C 67 °F /  19.4 °C 29.99in /  1015.5hPa Calm     67.1% 0.00in /  0mm 330 W/m2
07:39 79.4 °F /  26.3 °C 67.3 °F /  19.6 °C 29.99in /  1015.5hPa Calm     66.7% 0.00in /  0mm 345 W/m2
07:44 79.9 °F /  26.6 °C 67.5 °F /  19.7 °C 29.99in /  1015.5hPa Calm     66% 0.00in /  0mm 357 W/m2
07:49 80.4 °F /  26.9 °C 67.1 °F /  19.5 °C 30.00in /  1015.8hPa Calm     64.1% 0.00in /  0mm 373 W/m2
07:54 80.7 °F /  27.1 °C 67.2 °F /  19.6 °C 30.00in /  1015.8hPa Calm     63.5% 0.00in /  0mm 388 W/m2
07:59 81.1 °F /  27.3 °C 67.7 °F /  19.8 °C 30.00in /  1015.8hPa Calm     63.8% 0.00in /  0mm 408 W/m2
08:09 82 °F /  27.8 °C 67.4 °F /  19.7 °C 30.00in /  1015.8hPa Calm     61.4% 0.00in /  0mm 441 W/m2
08:14 82.4 °F /  28 °C 67.2 °F /  19.6 °C 30.00in /  1015.8hPa Calm     60.1% 0.00in /  0mm 459 W/m2
08:19 82.8 °F /  28.2 °C 67 °F /  19.4 °C 30.00in /  1015.8hPa Calm     58.8% 0.00in /  0mm 473 W/m2
08:24 83.2 °F /  28.4 °C 67.5 °F /  19.7 °C 30.00in /  1015.8hPa Calm     59.2% 0.00in /  0mm 489 W/m2
08:29 83.5 °F /  28.6 °C 68.6 °F /  20.3 °C 30.00in /  1015.8hPa Calm     60.8% 0.00in /  0mm 506 W/m2
08:34 84 °F /  28.9 °C 68.6 °F /  20.3 °C 30.00in /  1015.8hPa Calm     59.9% 0.00in /  0mm 524 W/m2
08:39 84.3 °F /  29.1 °C 68.3 °F /  20.2 °C 30.00in /  1015.8hPa Calm     58.6% 0.00in /  0mm 541 W/m2
08:44 84.7 °F /  29.3 °C 68.2 °F /  20.1 °C 30.00in /  1015.8hPa Calm     57.9% 0.00in /  0mm 555 W/m2
08:49 85.1 °F /  29.5 °C 68.3 °F /  20.2 °C 30.00in /  1015.8hPa Calm     57.3% 0.00in /  0mm 571 W/m2
08:54 85.5 °F /  29.7 °C 68.4 °F /  20.2 °C 30.00in /  1015.8hPa Calm     56.7% 0.00in /  0mm 585 W/m2
08:59 86 °F /  30 °C 68.6 °F /  20.3 °C 30.00in /  1015.8hPa Calm     56.2% 0.00in /  0mm 599 W/m2
09:04 86.5 °F /  30.3 °C 68.3 °F /  20.2 °C 30.00in /  1015.8hPa Calm   1mph /  1.6km/h 54.8% 0.00in /  0mm 615 W/m2
09:09 86.9 °F /  30.5 °C 68 °F /  20 °C 30.00in /  1015.8hPa Calm   1mph /  1.6km/h 53.6% 0.00in /  0mm 629 W/m2
09:14 87.1 °F /  30.6 °C 68.1 °F /  20.1 °C 30.00in /  1015.8hPa West 0.4mph /  0.6km/h 6mph /  9.7km/h 53.3% 0.00in /  0mm 643 W/m2
09:19 87.5 °F /  30.8 °C 68.1 °F /  20.1 °C 30.00in /  1015.8hPa Calm   6mph /  9.7km/h 52.6% 0.00in /  0mm 659 W/m2
09:24 88 °F /  31.1 °C 69.1 °F /  20.6 °C 30.00in /  1015.8hPa West 0.1mph /  0.2km/h 6mph /  9.7km/h 53.7% 0.00in /  0mm 673 W/m2
09:29 88.5 °F /  31.4 °C 69 °F /  20.6 °C 30.00in /  1015.8hPa Calm   6mph /  9.7km/h 52.7% 0.00in /  0mm 686 W/m2
09:34 88.9 °F /  31.6 °C 68.8 °F /  20.4 °C 30.00in /  1015.8hPa West 0.2mph /  0.3km/h 6mph /  9.7km/h 51.6% 0.00in /  0mm 700 W/m2
09:39 89.4 °F /  31.9 °C 68 °F /  20 °C 30.00in /  1015.8hPa West 0.1mph /  0.2km/h 3mph /  4.8km/h 49.6% 0.00in /  0mm 715 W/m2
09:44 89.6 °F /  32 °C 67.8 °F /  19.9 °C 30.00in /  1015.8hPa West 0.4mph /  0.6km/h 5mph /  8km/h 48.7% 0.00in /  0mm 728 W/m2
09:49 89.7 °F /  32.1 °C 67.1 °F /  19.5 °C 30.00in /  1015.8hPa Calm   5mph /  8km/h 47.5% 0.00in /  0mm 740 W/m2
09:54 89.9 °F /  32.2 °C 66.8 °F /  19.3 °C 30.00in /  1015.8hPa WSW 0.2mph /  0.3km/h 5mph /  8km/h 46.7% 0.00in /  0mm 754 W/m2
09:59 90.1 °F /  32.3 °C 66.8 °F /  19.3 °C 30.00in /  1015.8hPa WSW 0.6mph /  1km/h 6mph /  9.7km/h 46.3% 0.00in /  0mm 770 W/m2
10:04 90.3 °F /  32.4 °C 66.8 °F /  19.3 °C 29.99in /  1015.5hPa WSW 1.1mph /  1.8km/h 6mph /  9.7km/h 46.1% 0.00in /  0mm 779 W/m2
10:09 90.5 °F /  32.5 °C 67.1 °F /  19.5 °C 29.99in /  1015.5hPa WSW 1.1mph /  1.8km/h 9mph /  14.5km/h 46.2% 0.00in /  0mm 789 W/m2
10:14 91 °F /  32.8 °C 67.6 °F /  19.8 °C 29.99in /  1015.5hPa WSW 1.5mph /  2.4km/h 9mph /  14.5km/h 46.4% 0.00in /  0mm 802 W/m2
10:19 91.2 °F /  32.9 °C 66.7 °F /  19.3 °C 29.99in /  1015.5hPa WSW 0.8mph /  1.3km/h 9mph /  14.5km/h 44.6% 0.00in /  0mm 814 W/m2
10:24 91.3 °F /  32.9 °C 67.4 °F /  19.7 °C 29.99in /  1015.5hPa WSW 0.2mph /  0.3km/h 9mph /  14.5km/h 45.7% 0.00in /  0mm 826 W/m2
10:29 91.6 °F /  33.1 °C 67.9 °F /  19.9 °C 29.99in /  1015.5hPa Calm   9mph /  14.5km/h 46.1% 0.00in /  0mm 835 W/m2
10:34 92 °F /  33.3 °C 68.1 °F /  20.1 °C 29.99in /  1015.5hPa West 0.3mph /  0.5km/h 9mph /  14.5km/h 45.8% 0.00in /  0mm 847 W/m2
10:39 92.5 °F /  33.6 °C 68.6 °F /  20.3 °C 29.99in /  1015.5hPa WSW 1mph /  1.6km/h 6mph /  9.7km/h 45.8% 0.00in /  0mm 853 W/m2
10:44 92.6 °F /  33.7 °C 67.8 °F /  19.9 °C 29.99in /  1015.5hPa WSW 1.1mph /  1.8km/h 6mph /  9.7km/h 44.3% 0.00in /  0mm 861 W/m2
10:49 92.8 °F /  33.8 °C 69.1 °F /  20.6 °C 29.99in /  1015.5hPa WSW 1.4mph /  2.3km/h 6mph /  9.7km/h 46.2% 0.00in /  0mm 867 W/m2
10:54 92.9 °F /  33.8 °C 68.2 °F /  20.1 °C 29.99in /  1015.5hPa SW 1.3mph /  2.1km/h 6mph /  9.7km/h 44.6% 0.00in /  0mm 877 W/m2
10:59 92.9 °F /  33.8 °C 68 °F /  20 °C 29.99in /  1015.5hPa SW 1mph /  1.6km/h 6mph /  9.7km/h 44.3% 0.00in /  0mm 889 W/m2
11:04 93 °F /  33.9 °C 68.7 °F /  20.4 °C 29.99in /  1015.5hPa WSW 1.8mph /  2.9km/h 10mph /  16.1km/h 45.2% 0.00in /  0mm 898 W/m2
11:09 93 °F /  33.9 °C 68 °F /  20 °C 29.99in /  1015.5hPa SW 0.6mph /  1km/h 10mph /  16.1km/h 44.3% 0.00in /  0mm 909 W/m2
11:14 92.9 °F /  33.8 °C 68.3 °F /  20.2 °C 29.99in /  1015.5hPa SW 1.5mph /  2.4km/h 10mph /  16.1km/h 44.6% 0.00in /  0mm 909 W/m2
11:19 92.7 °F /  33.7 °C 67.9 °F /  19.9 °C 29.99in /  1015.5hPa SW 0.4mph /  0.6km/h 10mph /  16.1km/h 44.3% 0.00in /  0mm 865 W/m2
11:24 92.5 °F /  33.6 °C 69 °F /  20.6 °C 29.98in /  1015.1hPa SSW 1.3mph /  2.1km/h 10mph /  16.1km/h 46.3% 0.00in /  0mm 889 W/m2
11:29 92.6 °F /  33.7 °C 68.6 °F /  20.3 °C 29.99in /  1015.5hPa SSW 1mph /  1.6km/h 10mph /  16.1km/h 45.7% 0.00in /  0mm 912 W/m2
11:34 92.7 °F /  33.7 °C 68.3 °F /  20.2 °C 29.99in /  1015.5hPa WSW 2.5mph /  4km/h 10mph /  16.1km/h 45.1% 0.00in /  0mm 926 W/m2
11:39 93 °F /  33.9 °C 68.3 °F /  20.2 °C 29.99in /  1015.5hPa WSW 1.3mph /  2.1km/h 10mph /  16.1km/h 44.6% 0.00in /  0mm 928 W/m2
11:44 93.4 °F /  34.1 °C 67.9 °F /  19.9 °C 29.99in /  1015.5hPa WSW 1.3mph /  2.1km/h 10mph /  16.1km/h 43.6% 0.00in /  0mm 946 W/m2
11:49 93.5 °F /  34.2 °C 68 °F /  20 °C 29.98in /  1015.1hPa WSW 1.4mph /  2.3km/h 10mph /  16.1km/h 43.5% 0.00in /  0mm 928 W/m2
11:54 93.6 °F /  34.2 °C 68.4 °F /  20.2 °C 29.98in /  1015.1hPa WNW 2mph /  3.2km/h 10mph /  16.1km/h 44% 0.00in /  0mm 960 W/m2
11:59 93.9 °F /  34.4 °C 67.6 °F /  19.8 °C 29.98in /  1015.1hPa West 1.6mph /  2.6km/h 10mph /  16.1km/h 42.5% 0.00in /  0mm 969 W/m2
12:09 94.1 °F /  34.5 °C 67.9 °F /  19.9 °C 29.98in /  1015.1hPa West 1.9mph /  3.1km/h 7mph /  11.3km/h 42.5% 0.00in /  0mm 919 W/m2
12:14 94.2 °F /  34.6 °C 67.8 °F /  19.9 °C 29.98in /  1015.1hPa WSW 2.5mph /  4km/h 10mph /  16.1km/h 42.3% 0.00in /  0mm 919 W/m2
12:19 94.2 °F /  34.6 °C 67.8 °F /  19.9 °C 29.98in /  1015.1hPa West 2.1mph /  3.4km/h 10mph /  16.1km/h 42.3% 0.00in /  0mm 953 W/m2
12:24 94.2 °F /  34.6 °C 68.2 °F /  20.1 °C 29.98in /  1015.1hPa WSW 0.9mph /  1.4km/h 10mph /  16.1km/h 42.8% 0.00in /  0mm 963 W/m2
12:29 94 °F /  34.4 °C 67.6 °F /  19.8 °C 29.98in /  1015.1hPa SW 2.6mph /  4.2km/h 10mph /  16.1km/h 42.2% 0.00in /  0mm 963 W/m2
12:34 93.9 °F /  34.4 °C 67.9 °F /  19.9 °C 29.98in /  1015.1hPa WSW 2.6mph /  4.2km/h 10mph /  16.1km/h 42.8% 0.00in /  0mm 951 W/m2
12:39 94 °F /  34.4 °C 66.3 °F /  19.1 °C 29.98in /  1015.1hPa West 2.7mph /  4.3km/h 7mph /  11.3km/h 40.4% 0.00in /  0mm 988 W/m2
12:44 93.7 °F /  34.3 °C 66.6 °F /  19.2 °C 29.98in /  1015.1hPa WSW 3.5mph /  5.6km/h 13mph /  20.9km/h 41.2% 0.00in /  0mm 984 W/m2
12:49 93.6 °F /  34.2 °C 67.6 °F /  19.8 °C 29.98in /  1015.1hPa West 1.9mph /  3.1km/h 13mph /  20.9km/h 42.8% 0.00in /  0mm 969 W/m2
12:54 93.8 °F /  34.3 °C 67.9 °F /  19.9 °C 29.97in /  1014.8hPa West 2.7mph /  4.3km/h 13mph /  20.9km/h 43% 0.00in /  0mm 958 W/m2
12:59 93.9 °F /  34.4 °C 67.5 °F /  19.7 °C 29.97in /  1014.8hPa WSW 2.8mph /  4.5km/h 13mph /  20.9km/h 42.3% 0.00in /  0mm 981 W/m2
13:04 94 °F /  34.4 °C 67.2 °F /  19.6 °C 29.97in /  1014.8hPa SW 2.2mph /  3.5km/h 13mph /  20.9km/h 41.6% 0.00in /  0mm 977 W/m2
13:09 94.1 °F /  34.5 °C 66.6 °F /  19.2 °C 29.97in /  1014.8hPa WSW 2.1mph /  3.4km/h 6mph /  9.7km/h 40.7% 0.00in /  0mm 972 W/m2
13:14 94 °F /  34.4 °C 65.7 °F /  18.7 °C 29.97in /  1014.8hPa WSW 1.4mph /  2.3km/h 6mph /  9.7km/h 39.6% 0.00in /  0mm 976 W/m2
13:19 94.3 °F /  34.6 °C 68.2 °F /  20.1 °C 29.97in /  1014.8hPa WNW 1.5mph /  2.4km/h 7mph /  11.3km/h 42.7% 0.00in /  0mm 974 W/m2
13:24 94.6 °F /  34.8 °C 67 °F /  19.4 °C 29.97in /  1014.8hPa WSW 1.8mph /  2.9km/h 8mph /  12.9km/h 40.6% 0.00in /  0mm 972 W/m2
13:29 94.6 °F /  34.8 °C 66.9 °F /  19.4 °C 29.97in /  1014.8hPa West 2.3mph /  3.7km/h 8mph /  12.9km/h 40.5% 0.00in /  0mm 962 W/m2
13:34 94.6 °F /  34.8 °C 66.9 °F /  19.4 °C 29.96in /  1014.4hPa West 1.9mph /  3.1km/h 8mph /  12.9km/h 40.5% 0.00in /  0mm 962 W/m2
13:39 94.3 °F /  34.6 °C 67.7 °F /  19.8 °C 29.96in /  1014.4hPa WSW 1.9mph /  3.1km/h 10mph /  16.1km/h 42.1% 0.00in /  0mm 963 W/m2
13:44 94 °F /  34.4 °C 67.3 °F /  19.6 °C 29.96in /  1014.4hPa WNW 3.4mph /  5.5km/h 10mph /  16.1km/h 41.8% 0.00in /  0mm 965 W/m2
13:49 94 °F /  34.4 °C 67.4 °F /  19.7 °C 29.96in /  1014.4hPa SW 3.2mph /  5.1km/h 10mph /  16.1km/h 41.9% 0.00in /  0mm 965 W/m2
13:54 94.2 °F /  34.6 °C 67.6 °F /  19.8 °C 29.96in /  1014.4hPa WSW 3.3mph /  5.3km/h 13mph /  20.9km/h 42.1% 0.00in /  0mm 954 W/m2
13:59 94.4 °F /  34.7 °C 67.4 °F /  19.7 °C 29.96in /  1014.4hPa WSW 1.6mph /  2.6km/h 13mph /  20.9km/h 41.5% 0.00in /  0mm 949 W/m2
14:04 94.4 °F /  34.7 °C 66.6 °F /  19.2 °C 29.96in /  1014.4hPa West 1.4mph /  2.3km/h 13mph /  20.9km/h 40.4% 0.00in /  0mm 946 W/m2
14:09 94.5 °F /  34.7 °C 67.2 °F /  19.6 °C 29.96in /  1014.4hPa WSW 2.3mph /  3.7km/h 8mph /  12.9km/h 41% 0.00in /  0mm 946 W/m2
14:14 94.7 °F /  34.8 °C 66.3 °F /  19.1 °C 29.96in /  1014.4hPa West 3.8mph /  6.1km/h 9mph /  14.5km/h 39.5% 0.00in /  0mm 933 W/m2
14:19 94.7 °F /  34.8 °C 66.2 °F /  19 °C 29.96in /  1014.4hPa WSW 3mph /  4.8km/h 9mph /  14.5km/h 39.4% 0.00in /  0mm 930 W/m2
14:24 94.6 °F /  34.8 °C 66.3 °F /  19.1 °C 29.96in /  1014.4hPa WNW 3mph /  4.8km/h 9mph /  14.5km/h 39.6% 0.00in /  0mm 923 W/m2
14:29 94.7 °F /  34.8 °C 66.1 °F /  18.9 °C 29.96in /  1014.4hPa West 1.7mph /  2.7km/h 9mph /  14.5km/h 39.3% 0.00in /  0mm 912 W/m2
14:34 94.8 °F /  34.9 °C 66.2 °F /  19 °C 29.96in /  1014.4hPa West 2.3mph /  3.7km/h 9mph /  14.5km/h 39.3% 0.00in /  0mm 916 W/m2
14:39 94.8 °F /  34.9 °C 66.8 °F /  19.3 °C 29.96in /  1014.4hPa West 1.4mph /  2.3km/h 8mph /  12.9km/h 40.1% 0.00in /  0mm 902 W/m2
14:44 95 °F /  35 °C 66.8 °F /  19.3 °C 29.96in /  1014.4hPa WSW 1.8mph /  2.9km/h 9mph /  14.5km/h 39.9% 0.00in /  0mm 896 W/m2
14:49 94.8 °F /  34.9 °C 65.4 °F /  18.6 °C 29.95in /  1014.1hPa West 2.7mph /  4.3km/h 9mph /  14.5km/h 38.2% 0.00in /  0mm 893 W/m2
14:54 94.7 °F /  34.8 °C 66.4 °F /  19.1 °C 29.95in /  1014.1hPa WSW 2.4mph /  3.9km/h 11mph /  17.7km/h 39.7% 0.00in /  0mm 881 W/m2
14:59 94.8 °F /  34.9 °C 66.2 °F /  19 °C 29.95in /  1014.1hPa WSW 2.1mph /  3.4km/h 11mph /  17.7km/h 39.2% 0.00in /  0mm 875 W/m2
15:04 94.9 °F /  34.9 °C 66.3 °F /  19.1 °C 29.95in /  1014.1hPa WSW 1.9mph /  3.1km/h 11mph /  17.7km/h 39.3% 0.00in /  0mm 863 W/m2
15:09 94.9 °F /  34.9 °C 65.8 °F /  18.8 °C 29.95in /  1014.1hPa WNW 2.3mph /  3.7km/h 9mph /  14.5km/h 38.5% 0.00in /  0mm 856 W/m2
15:14 95.1 °F /  35.1 °C 65.4 °F /  18.6 °C 29.95in /  1014.1hPa West 2.6mph /  4.2km/h 9mph /  14.5km/h 37.8% 0.00in /  0mm 851 W/m2
15:19 95.2 °F /  35.1 °C 65.4 °F /  18.6 °C 29.95in /  1014.1hPa WSW 3.3mph /  5.3km/h 13mph /  20.9km/h 37.7% 0.00in /  0mm 846 W/m2
15:24 95.1 °F /  35.1 °C 64.8 °F /  18.2 °C 29.95in /  1014.1hPa WSW 4.3mph /  6.9km/h 13mph /  20.9km/h 37.1% 0.00in /  0mm 816 W/m2
15:29 94.8 °F /  34.9 °C 64.7 °F /  18.2 °C 29.95in /  1014.1hPa West 4mph /  6.4km/h 13mph /  20.9km/h 37.2% 0.00in /  0mm 807 W/m2
15:34 94.7 °F /  34.8 °C 65.6 °F /  18.7 °C 29.95in /  1014.1hPa WNW 2.4mph /  3.9km/h 13mph /  20.9km/h 38.6% 0.00in /  0mm 803 W/m2
15:39 94.6 °F /  34.8 °C 65.2 °F /  18.4 °C 29.95in /  1014.1hPa West 1.7mph /  2.7km/h 6mph /  9.7km/h 38.1% 0.00in /  0mm 719 W/m2
15:44 94.7 °F /  34.8 °C 66.2 °F /  19 °C 29.95in /  1014.1hPa West 2.5mph /  4km/h 9mph /  14.5km/h 39.3% 0.00in /  0mm 694 W/m2
15:49 94.6 °F /  34.8 °C 65.5 °F /  18.6 °C 29.95in /  1014.1hPa West 2.8mph /  4.5km/h 11mph /  17.7km/h 38.5% 0.00in /  0mm 754 W/m2
15:54 94.4 °F /  34.7 °C 64.5 °F /  18.1 °C 29.95in /  1014.1hPa South 1.5mph /  2.4km/h 11mph /  17.7km/h 37.5% 0.00in /  0mm 601 W/m2
15:59 94.2 °F /  34.6 °C 65.1 °F /  18.4 °C 29.95in /  1014.1hPa WSW 2.3mph /  3.7km/h 11mph /  17.7km/h 38.5% 0.00in /  0mm 589 W/m2
16:00 94 °F /  34.4 °C 64.6 °F /  18.1 °C 29.94in /  1013.8hPa Calm   11mph /  17.7km/h 38% 0.00in /  0mm 536 W/m2
16:09 93.7 °F /  34.3 °C 65.8 °F /  18.8 °C 29.95in /  1014.1hPa West 3.1mph /  5km/h 14mph /  22.5km/h 40.1% 0.00in /  0mm 650 W/m2
16:14 93.5 °F /  34.2 °C 65.4 °F /  18.6 °C 29.95in /  1014.1hPa SW 2.4mph /  3.9km/h 14mph /  22.5km/h 39.8% 0.00in /  0mm 362 W/m2
16:19 93.3 °F /  34.1 °C 65.8 °F /  18.8 °C 29.94in /  1013.8hPa WSW 1.8mph /  2.9km/h 14mph /  22.5km/h 40.7% 0.00in /  0mm 111 W/m2
16:24 93.1 °F /  33.9 °C 65.4 °F /  18.6 °C 29.94in /  1013.8hPa WSW 3.1mph /  5km/h 14mph /  22.5km/h 40.3% 0.00in /  0mm 104 W/m2
16:29 92.9 °F /  33.8 °C 63.8 °F /  17.7 °C 29.94in /  1013.8hPa WSW 5.5mph /  8.9km/h 14mph /  22.5km/h 38.3% 0.00in /  0mm 102 W/m2
16:34 92.7 °F /  33.7 °C 64.6 °F /  18.1 °C 29.95in /  1014.1hPa WSW 3.4mph /  5.5km/h 14mph /  22.5km/h 39.7% 0.00in /  0mm 114 W/m2
16:39 92.6 °F /  33.7 °C 64.2 °F /  17.9 °C 29.95in /  1014.1hPa WSW 3.1mph /  5km/h 14mph /  22.5km/h 39.2% 0.00in /  0mm 113 W/m2
16:44 92.5 °F /  33.6 °C 64.6 °F /  18.1 °C 29.94in /  1013.8hPa West 3.9mph /  6.3km/h 14mph /  22.5km/h 39.8% 0.00in /  0mm 104 W/m2
16:49 92.5 °F /  33.6 °C 64.8 °F /  18.2 °C 29.94in /  1013.8hPa WSW 3.1mph /  5km/h 14mph /  22.5km/h 40.1% 0.00in /  0mm 105 W/m2
16:54 92.5 °F /  33.6 °C 65.3 °F /  18.5 °C 29.94in /  1013.8hPa West 3.4mph /  5.5km/h 14mph /  22.5km/h 41% 0.00in /  0mm 109 W/m2
16:59 92.4 °F /  33.6 °C 65.7 °F /  18.7 °C 29.94in /  1013.8hPa WNW 2.5mph /  4km/h 14mph /  22.5km/h 41.6% 0.00in /  0mm 102 W/m2
17:04 92.2 °F /  33.4 °C 65.9 °F /  18.8 °C 29.94in /  1013.8hPa WNW 0.7mph /  1.1km/h 14mph /  22.5km/h 42.1% 0.00in /  0mm 107 W/m2
17:09 92 °F /  33.3 °C 66.2 °F /  19 °C 29.95in /  1014.1hPa WSW 1mph /  1.6km/h 7mph /  11.3km/h 42.8% 0.00in /  0mm 123 W/m2
17:14 91.9 °F /  33.3 °C 65.8 °F /  18.8 °C 29.94in /  1013.8hPa SW 2.3mph /  3.7km/h 7mph /  11.3km/h 42.3% 0.00in /  0mm 127 W/m2
17:19 92 °F /  33.3 °C 66.4 °F /  19.1 °C 29.94in /  1013.8hPa SW 0.7mph /  1.1km/h 7mph /  11.3km/h 43.1% 0.00in /  0mm 123 W/m2
17:24 92 °F /  33.3 °C 66.7 °F /  19.3 °C 29.94in /  1013.8hPa SW 0.4mph /  0.6km/h 7mph /  11.3km/h 43.6% 0.00in /  0mm 109 W/m2
17:29 92 °F /  33.3 °C 66.5 °F /  19.2 °C 29.94in /  1013.8hPa WSW 1mph /  1.6km/h 7mph /  11.3km/h 43.3% 0.00in /  0mm 91 W/m2
17:34 92 °F /  33.3 °C 66.5 °F /  19.2 °C 29.94in /  1013.8hPa WSW 1.1mph /  1.8km/h 7mph /  11.3km/h 43.2% 0.00in /  0mm 81 W/m2
17:39 92.1 °F /  33.4 °C 67.2 °F /  19.6 °C 29.94in /  1013.8hPa WSW 1.5mph /  2.4km/h 9mph /  14.5km/h 44.1% 0.00in /  0mm 72 W/m2
17:44 92.2 °F /  33.4 °C 67.6 °F /  19.8 °C 29.94in /  1013.8hPa WSW 1mph /  1.6km/h 9mph /  14.5km/h 44.7% 0.00in /  0mm 70 W/m2
17:49 92.2 °F /  33.4 °C 67.2 °F /  19.6 °C 29.94in /  1013.8hPa WSW 1.9mph /  3.1km/h 9mph /  14.5km/h 44% 0.00in /  0mm 62 W/m2
17:54 92.2 °F /  33.4 °C 67.4 °F /  19.7 °C 29.94in /  1013.8hPa WSW 2.6mph /  4.2km/h 9mph /  14.5km/h 44.4% 0.00in /  0mm 62 W/m2
17:59 92.1 °F /  33.4 °C 66.7 °F /  19.3 °C 29.94in /  1013.8hPa WSW 2.6mph /  4.2km/h 9mph /  14.5km/h 43.4% 0.00in /  0mm 63 W/m2
18:04 91.9 °F /  33.3 °C 66.5 °F /  19.2 °C 29.94in /  1013.8hPa West 2.2mph /  3.5km/h 9mph /  14.5km/h 43.4% 0.00in /  0mm 62 W/m2
18:09 91.7 °F /  33.2 °C 66.7 °F /  19.3 °C 29.94in /  1013.8hPa WSW 1.9mph /  3.1km/h 7mph /  11.3km/h 44% 0.00in /  0mm 53 W/m2
18:14 91.5 °F /  33.1 °C 66.3 °F /  19.1 °C 29.94in /  1013.8hPa SW 0.8mph /  1.3km/h 7mph /  11.3km/h 43.5% 0.00in /  0mm 49 W/m2
18:19 91.4 °F /  33 °C 66.8 °F /  19.3 °C 29.94in /  1013.8hPa WSW 1.5mph /  2.4km/h 7mph /  11.3km/h 44.6% 0.00in /  0mm 47 W/m2
18:24 91.2 °F /  32.9 °C 66.5 °F /  19.2 °C 29.94in /  1013.8hPa SW 0.8mph /  1.3km/h 9mph /  14.5km/h 44.5% 0.00in /  0mm 46 W/m2
18:29 91 °F /  32.8 °C 66.6 °F /  19.2 °C 29.94in /  1013.8hPa SW 0.8mph /  1.3km/h 9mph /  14.5km/h 44.9% 0.00in /  0mm 46 W/m2
18:34 90.8 °F /  32.7 °C 66.6 °F /  19.2 °C 29.94in /  1013.8hPa SW 0.6mph /  1km/h 9mph /  14.5km/h 45.1% 0.00in /  0mm 46 W/m2
18:39 90.6 °F /  32.6 °C 66.7 °F /  19.3 °C 29.94in /  1013.8hPa WSW 0.5mph /  0.8km/h 5mph /  8km/h 45.5% 0.00in /  0mm 47 W/m2
18:44 90.5 °F /  32.5 °C 67 °F /  19.4 °C 29.94in /  1013.8hPa WSW 0.8mph /  1.3km/h 5mph /  8km/h 46.2% 0.00in /  0mm 49 W/m2
18:49 90.3 °F /  32.4 °C 66.9 °F /  19.4 °C 29.94in /  1013.8hPa WSW 1mph /  1.6km/h 6mph /  9.7km/h 46.3% 0.00in /  0mm 53 W/m2
18:54 90.2 °F /  32.3 °C 67.1 °F /  19.5 °C 29.94in /  1013.8hPa WSW 0.6mph /  1km/h 6mph /  9.7km/h 46.8% 0.00in /  0mm 53 W/m2
18:59 90 °F /  32.2 °C 67.2 °F /  19.6 °C 29.94in /  1013.8hPa WSW 0.1mph /  0.2km/h 6mph /  9.7km/h 47.2% 0.00in /  0mm 53 W/m2
19:04 89.9 °F /  32.2 °C 67.4 °F /  19.7 °C 29.94in /  1013.8hPa Calm   6mph /  9.7km/h 47.8% 0.00in /  0mm 49 W/m2
19:09 89.7 °F /  32.1 °C 67.5 °F /  19.7 °C 29.94in /  1013.8hPa WSW 0.1mph /  0.2km/h 3mph /  4.8km/h 48% 0.00in /  0mm 47 W/m2
19:14 89.6 °F /  32 °C 67.2 °F /  19.6 °C 29.94in /  1013.8hPa WSW 0.2mph /  0.3km/h 3mph /  4.8km/h 47.8% 0.00in /  0mm 47 W/m2
19:19 89.5 °F /  31.9 °C 67.5 °F /  19.7 °C 29.94in /  1013.8hPa WSW 0.1mph /  0.2km/h 3mph /  4.8km/h 48.4% 0.00in /  0mm 47 W/m2
19:24 89.4 °F /  31.9 °C 67.6 °F /  19.8 °C 29.94in /  1013.8hPa Calm   3mph /  4.8km/h 48.8% 0.00in /  0mm 47 W/m2
19:29 89.2 °F /  31.8 °C 67.5 °F /  19.7 °C 29.94in /  1013.8hPa WSW 0.6mph /  1km/h 4mph /  6.4km/h 48.8% 0.00in /  0mm 47 W/m2
19:34 88.9 °F /  31.6 °C 67.3 °F /  19.6 °C 29.94in /  1013.8hPa SSW 1.1mph /  1.8km/h 5mph /  8km/h 49% 0.00in /  0mm 47 W/m2
19:37 88.5 °F /  31.4 °C 67.6 °F /  19.8 °C 29.94in /  1013.8hPa SSW 0.4mph /  0.6km/h 5mph /  8km/h 50.2% 0.00in /  0mm 46 W/m2
20:09 86 °F /  30 °C 68.8 °F /  20.4 °C 29.95in /  1014.1hPa Calm     56.5% 0.00in /  0mm 14 W/m2
20:14 85.7 °F /  29.8 °C 68.9 °F /  20.5 °C 29.95in /  1014.1hPa SSW 0.1mph /  0.2km/h 2mph /  3.2km/h 57.4% 0.00in /  0mm 9 W/m2
20:19 85.4 °F /  29.7 °C 69.2 °F /  20.7 °C 29.95in /  1014.1hPa SSW 0.5mph /  0.8km/h 4mph /  6.4km/h 58.5% 0.00in /  0mm 5 W/m2
20:24 85 °F /  29.4 °C 69.2 °F /  20.7 °C 29.95in /  1014.1hPa Calm   4mph /  6.4km/h 59.3% 0.00in /  0mm 0 W/m2
20:29 84.7 °F /  29.3 °C 69.3 °F /  20.7 °C 29.95in /  1014.1hPa SSW 0.2mph /  0.3km/h 4mph /  6.4km/h 60% 0.00in /  0mm 0 W/m2
20:34 84.4 °F /  29.1 °C 69.3 °F /  20.7 °C 29.96in /  1014.4hPa Calm   4mph /  6.4km/h 60.6% 0.00in /  0mm 0 W/m2
20:39 84.1 °F /  28.9 °C 69.2 °F /  20.7 °C 29.96in /  1014.4hPa Calm     61% 0.00in /  0mm 0 W/m2
20:44 83.8 °F /  28.8 °C 69.1 °F /  20.6 °C 29.96in /  1014.4hPa Calm     61.2% 0.00in /  0mm 0 W/m2
20:49 83.6 °F /  28.7 °C 69.2 °F /  20.7 °C 29.96in /  1014.4hPa Calm     62% 0.00in /  0mm 0 W/m2
20:54 83.4 °F /  28.6 °C 69.4 °F /  20.8 °C 29.97in /  1014.8hPa Calm     62.9% 0.00in /  0mm 0 W/m2
20:59 83.1 °F /  28.4 °C 69.2 °F /  20.7 °C 29.97in /  1014.8hPa Calm     63% 0.00in /  0mm 0 W/m2
21:04 82.9 °F /  28.3 °C 69.3 °F /  20.7 °C 29.97in /  1014.8hPa Calm     63.5% 0.00in /  0mm 0 W/m2
21:09 82.7 °F /  28.2 °C 69.3 °F /  20.7 °C 29.97in /  1014.8hPa Calm     64% 0.00in /  0mm 0 W/m2
21:14 82.4 °F /  28 °C 69.1 °F /  20.6 °C 29.98in /  1015.1hPa Calm     64.1% 0.00in /  0mm 0 W/m2
21:19 82.2 °F /  27.9 °C 69.3 °F /  20.7 °C 29.98in /  1015.1hPa Calm     65% 0.00in /  0mm 0 W/m2
21:24 82 °F /  27.8 °C 69.1 °F /  20.6 °C 29.98in /  1015.1hPa Calm     65% 0.00in /  0mm 0 W/m2
21:29 81.8 °F /  27.7 °C 68.9 °F /  20.5 °C 29.98in /  1015.1hPa Calm     65% 0.00in /  0mm 0 W/m2
21:34 81.5 °F /  27.5 °C 68.8 °F /  20.4 °C 29.98in /  1015.1hPa Calm     65.3% 0.00in /  0mm 0 W/m2
21:39 81.3 °F /  27.4 °C 68.8 °F /  20.4 °C 29.98in /  1015.1hPa Calm     65.9% 0.00in /  0mm 0 W/m2
21:44 81.1 °F /  27.3 °C 68.6 °F /  20.3 °C 29.98in /  1015.1hPa Calm     66% 0.00in /  0mm 0 W/m2
21:49 80.9 °F /  27.2 °C 68.5 °F /  20.3 °C 29.99in /  1015.5hPa Calm     66% 0.00in /  0mm 0 W/m2
21:54 80.7 °F /  27.1 °C 68.3 °F /  20.2 °C 29.99in /  1015.5hPa Calm     66% 0.00in /  0mm 0 W/m2
21:59 80.5 °F /  26.9 °C 68.3 °F /  20.2 °C 29.99in /  1015.5hPa Calm     66.4% 0.00in /  0mm 0 W/m2
22:04 80.3 °F /  26.8 °C 68.3 °F /  20.2 °C 29.99in /  1015.5hPa Calm     67% 0.00in /  0mm 0 W/m2
22:06 80.2 °F /  26.8 °C 68.2 °F /  20.1 °C 29.99in /  1015.5hPa Calm     67% 0.00in /  0mm 0 W/m2
22:30 79.1 °F /  26.2 °C 67.2 °F /  19.6 °C 30.00in /  1015.8hPa Calm     67% 0.00in /  0mm 0 W/m2
23:00 77.8 °F /  25.4 °C 66.8 °F /  19.3 °C 30.00in /  1015.8hPa Calm     69% 0.00in /  0mm 0 W/m2
23:30 76.7 °F /  24.8 °C 66.2 °F /  19 °C 30.01in /  1016.1hPa Calm     70% 0.00in /  0mm 0 W/m2
Hartford County Weather
Compliments of Weather Underground - 2 mb